Bow Guardian — 9HA3985 — position and weather

sailwx.info

Track history (hours):
 
Tides and Currents Weather Stations Pressure Air Temp Water Temp Dewpoint Dewpoint Depression Visibility Wind Speed Wind Dir Waves Ship Positions

Bow Guardian

Last reported at 2018-Feb-10 14:13 UTC. Time now 2018-Feb-18 04:59 UTC.
Position N 34°52' W 024°47'.

Length 120 m; draft 7.3 m.

Type: Ship (hazmat cat A). MMSI: 256694000.

Date/timePositionNaut miles runAvg speedWind from/ knotsBaromVisibWave heightAir tempDewpointWater temp
2018-Feb-10 14:13N 34°52' W 024°47'314.7
2018-Feb-10 14:00N 34°52' W 024°43'914.3
2018-Feb-10 13:21N 34°54' W 024°32'2014.4
2018-Feb-10 11:57N 34°58' W 024°08'614.3
2018-Feb-10 11:30N 34°60' W 024°00'1014.3
2018-Feb-10 10:49N 35°02' W 023°49'  
2018-Feb-08 03:30N 37°44' W 009°03'1111.4
2018-Feb-08 02:30N 37°53' W 008°54'4 3.6
2018-Feb-08 01:30N 37°57' W 008°53'0 0.0
2018-Feb-08 01:00N 37°57' W 008°53'0 0.0
2018-Feb-08 00:30N 37°57' W 008°53'0 0.0
2018-Feb-07 23:57N 37°57' W 008°53'0 0.0
2018-Feb-07 23:30N 37°57' W 008°53'0 0.0
2018-Feb-07 23:00N 37°57' W 008°53'0 0.0
2018-Feb-07 22:30N 37°57' W 008°53'0 0.0
2018-Feb-07 22:00N 37°57' W 008°53'0 0.0
2018-Feb-07 21:30N 37°57' W 008°53'0 0.0
2018-Feb-07 09:30N 37°57' W 008°53'0 0.0
2018-Feb-07 09:00N 37°57' W 008°53'1 2.2
2018-Feb-07 08:30N 37°56' W 008°53'2 3.6
2018-Feb-07 08:00N 37°54' W 008°53'2 4.9
2018-Feb-07 07:30N 37°52' W 008°54'0 0.8
2018-Feb-07 07:00N 37°51' W 008°54'1 2.1
2018-Feb-07 06:30N 37°50' W 008°54'1 1.8
2018-Feb-07 06:00N 37°50' W 008°54'1 1.0
2018-Feb-07 05:30N 37°50' W 008°54'0 0.5
2018-Feb-07 05:00N 37°50' W 008°54'0 0.8
2018-Feb-07 04:30N 37°51' W 008°54'0 0.7
2018-Feb-07 04:00N 37°51' W 008°54'1 2.7
2018-Feb-07 03:30N 37°50' W 008°55'611.6
2018-Feb-07 03:00N 37°45' W 008°58'611.3
2018-Feb-07 02:30N 37°39' W 009°01'611.4
2018-Feb-07 02:00N 37°35' W 009°05'611.5
2018-Feb-07 01:30N 37°30' W 009°09'611.1
2018-Feb-07 00:59N 37°24' W 009°12'193 9.9
2018-Feb-06 05:23N 35°58' W 005°36'411.1
2018-Feb-06 05:00N 35°59' W 005°31'510.5
2018-Feb-06 04:29N 36°01' W 005°25'510.2
2018-Feb-06 04:00N 36°02' W 005°19'510.1
2018-Feb-06 03:30N 36°04' W 005°13'21812.4
2018-Feb-05 09:57N 37°18' W 000°57'613.5
2018-Feb-05 09:29N 37°23' W 000°51'713.7
2018-Feb-05 09:00N 37°27' W 000°45'913.5
2018-Feb-05 08:20N 37°33' W 000°36'513.1
2018-Feb-05 07:59N 37°36' W 000°32'612.5
2018-Feb-05 07:30N 37°41' W 000°27'  
2018-Feb-01 17:18N 37°45' W 000°21'415.2
2018-Feb-01 17:00N 37°41' W 000°24'814.9
2018-Feb-01 16:30N 37°35' W 000°29'814.6
2018-Feb-01 15:58N 37°29' W 000°35'714.5
2018-Feb-01 15:29N 37°25' W 000°42'714.6
2018-Feb-01 15:00N 37°20' W 000°49'22912.7
2018-Jan-31 21:00N 36°00' W 005°16'510.7
2018-Jan-31 20:31N 35°58' W 005°22'  
Track history (hours):
 
Tides and Currents Weather Stations Pressure Air Temp Water Temp Dewpoint Dewpoint Depression Visibility Wind Speed Wind Dir Waves Ship Positions

Bow Guardian

Last reported at 2018-Feb-10 14:13 UTC. Time now 2018-Feb-18 04:59 UTC.
Position N 34°52' W 024°47'.

Length 120 m; draft 7.3 m.

Type: Ship (hazmat cat A). MMSI: 256694000.

Date/timePositionNaut miles runAvg speedWind from/ knotsBaromVisibWave heightAir tempDewpointWater temp
2018-Feb-10 14:13N 34°52' W 024°47'314.7
2018-Feb-10 14:00N 34°52' W 024°43'914.3
2018-Feb-10 13:21N 34°54' W 024°32'2014.4
2018-Feb-10 11:57N 34°58' W 024°08'614.3
2018-Feb-10 11:30N 34°60' W 024°00'1014.3
2018-Feb-10 10:49N 35°02' W 023°49'  
2018-Feb-08 03:30N 37°44' W 009°03'1111.4
2018-Feb-08 02:30N 37°53' W 008°54'4 3.6
2018-Feb-08 01:30N 37°57' W 008°53'0 0.0
2018-Feb-08 01:00N 37°57' W 008°53'0 0.0
2018-Feb-08 00:30N 37°57' W 008°53'0 0.0
2018-Feb-07 23:57N 37°57' W 008°53'0 0.0
2018-Feb-07 23:30N 37°57' W 008°53'0 0.0
2018-Feb-07 23:00N 37°57' W 008°53'0 0.0
2018-Feb-07 22:30N 37°57' W 008°53'0 0.0
2018-Feb-07 22:00N 37°57' W 008°53'0 0.0
2018-Feb-07 21:30N 37°57' W 008°53'0 0.0
2018-Feb-07 09:30N 37°57' W 008°53'0 0.0
2018-Feb-07 09:00N 37°57' W 008°53'1 2.2
2018-Feb-07 08:30N 37°56' W 008°53'2 3.6
2018-Feb-07 08:00N 37°54' W 008°53'2 4.9
2018-Feb-07 07:30N 37°52' W 008°54'0 0.8
2018-Feb-07 07:00N 37°51' W 008°54'1 2.1
2018-Feb-07 06:30N 37°50' W 008°54'1 1.8
2018-Feb-07 06:00N 37°50' W 008°54'1 1.0
2018-Feb-07 05:30N 37°50' W 008°54'0 0.5
2018-Feb-07 05:00N 37°50' W 008°54'0 0.8
2018-Feb-07 04:30N 37°51' W 008°54'0 0.7
2018-Feb-07 04:00N 37°51' W 008°54'1 2.7
2018-Feb-07 03:30N 37°50' W 008°55'611.6
2018-Feb-07 03:00N 37°45' W 008°58'611.3
2018-Feb-07 02:30N 37°39' W 009°01'611.4
2018-Feb-07 02:00N 37°35' W 009°05'611.5
2018-Feb-07 01:30N 37°30' W 009°09'611.1
2018-Feb-07 00:59N 37°24' W 009°12'193 9.9
2018-Feb-06 05:23N 35°58' W 005°36'411.1
2018-Feb-06 05:00N 35°59' W 005°31'510.5
2018-Feb-06 04:29N 36°01' W 005°25'510.2
2018-Feb-06 04:00N 36°02' W 005°19'510.1
2018-Feb-06 03:30N 36°04' W 005°13'21812.4
2018-Feb-05 09:57N 37°18' W 000°57'613.5
2018-Feb-05 09:29N 37°23' W 000°51'713.7
2018-Feb-05 09:00N 37°27' W 000°45'913.5
2018-Feb-05 08:20N 37°33' W 000°36'513.1
2018-Feb-05 07:59N 37°36' W 000°32'612.5
2018-Feb-05 07:30N 37°41' W 000°27'  
2018-Feb-01 17:18N 37°45' W 000°21'415.2
2018-Feb-01 17:00N 37°41' W 000°24'814.9
2018-Feb-01 16:30N 37°35' W 000°29'814.6
2018-Feb-01 15:58N 37°29' W 000°35'714.5
2018-Feb-01 15:29N 37°25' W 000°42'714.6
2018-Feb-01 15:00N 37°20' W 000°49'22912.7
2018-Jan-31 21:00N 36°00' W 005°16'510.7
2018-Jan-31 20:31N 35°58' W 005°22'  

Dump ship's entire track history